sensor_id;sensor_type;location;lat;lon;timestamp;P1;durP1;ratioP1;P2;durP2;ratioP2
2998;SDS011;1509;51.964;7.628;2023-05-14T00:00:27;13.70;;;12.30;;
2998;SDS011;1509;51.964;7.628;2023-05-14T00:02:53;14.00;;;12.03;;
2998;SDS011;1509;51.964;7.628;2023-05-14T00:05:19;13.30;;;11.70;;
2998;SDS011;1509;51.964;7.628;2023-05-14T00:07:44;14.00;;;12.50;;
2998;SDS011;1509;51.964;7.628;2023-05-14T00:10:10;12.20;;;10.90;;
2998;SDS011;1509;51.964;7.628;2023-05-14T00:12:35;14.33;;;11.80;;
2998;SDS011;1509;51.964;7.628;2023-05-14T00:15:01;15.57;;;12.07;;
2998;SDS011;1509;51.964;7.628;2023-05-14T00:17:27;13.00;;;10.57;;
2998;SDS011;1509;51.964;7.628;2023-05-14T00:19:52;14.50;;;12.60;;
2998;SDS011;1509;51.964;7.628;2023-05-14T00:22:18;15.52;;;14.02;;
2998;SDS011;1509;51.964;7.628;2023-05-14T00:24:44;14.83;;;12.40;;
2998;SDS011;1509;51.964;7.628;2023-05-14T00:27:09;15.27;;;13.27;;
2998;SDS011;1509;51.964;7.628;2023-05-14T00:29:35;15.37;;;12.80;;
2998;SDS011;1509;51.964;7.628;2023-05-14T00:32:01;17.57;;;13.83;;
2998;SDS011;1509;51.964;7.628;2023-05-14T00:34:27;15.80;;;14.20;;
2998;SDS011;1509;51.964;7.628;2023-05-14T00:36:53;18.10;;;14.10;;
2998;SDS011;1509;51.964;7.628;2023-05-14T00:39:18;14.97;;;13.43;;
2998;SDS011;1509;51.964;7.628;2023-05-14T00:41:47;16.03;;;14.47;;
2998;SDS011;1509;51.964;7.628;2023-05-14T00:44:12;14.87;;;13.40;;
2998;SDS011;1509;51.964;7.628;2023-05-14T00:46:41;17.53;;;13.07;;
2998;SDS011;1509;51.964;7.628;2023-05-14T00:49:07;17.00;;;15.20;;
2998;SDS011;1509;51.964;7.628;2023-05-14T00:51:33;14.90;;;13.30;;
2998;SDS011;1509;51.964;7.628;2023-05-14T00:53:58;14.23;;;12.00;;
2998;SDS011;1509;51.964;7.628;2023-05-14T00:56:25;14.40;;;12.90;;
2998;SDS011;1509;51.964;7.628;2023-05-14T00:58:51;15.60;;;13.63;;
2998;SDS011;1509;51.964;7.628;2023-05-14T01:01:17;15.47;;;12.90;;
2998;SDS011;1509;51.964;7.628;2023-05-14T01:03:42;19.37;;;14.40;;
2998;SDS011;1509;51.964;7.628;2023-05-14T01:06:12;17.70;;;12.47;;
2998;SDS011;1509;51.964;7.628;2023-05-14T01:11:35;15.33;;;13.80;;
2998;SDS011;1509;51.964;7.628;2023-05-14T01:14:20;15.10;;;12.70;;
2998;SDS011;1509;51.964;7.628;2023-05-14T01:16:54;13.43;;;11.70;;
2998;SDS011;1509;51.964;7.628;2023-05-14T01:19:55;18.37;;;14.87;;
2998;SDS011;1509;51.964;7.628;2023-05-14T01:22:15;14.43;;;12.90;;
2998;SDS011;1509;51.964;7.628;2023-05-14T01:24:41;14.93;;;12.30;;
2998;SDS011;1509;51.964;7.628;2023-05-14T01:27:25;12.90;;;11.60;;
2998;SDS011;1509;51.964;7.628;2023-05-14T01:32:35;15.03;;;13.43;;
2998;SDS011;1509;51.964;7.628;2023-05-14T01:35:02;16.47;;;13.00;;
2998;SDS011;1509;51.964;7.628;2023-05-14T01:37:29;16.20;;;13.50;;
2998;SDS011;1509;51.964;7.628;2023-05-14T01:39:56;17.27;;;12.70;;
2998;SDS011;1509;51.964;7.628;2023-05-14T01:42:22;16.73;;;13.90;;
2998;SDS011;1509;51.964;7.628;2023-05-14T01:44:49;14.83;;;13.33;;
2998;SDS011;1509;51.964;7.628;2023-05-14T01:47:15;19.50;;;12.60;;
2998;SDS011;1509;51.964;7.628;2023-05-14T01:49:41;15.40;;;13.40;;
2998;SDS011;1509;51.964;7.628;2023-05-14T01:52:06;15.00;;;13.43;;
2998;SDS011;1509;51.964;7.628;2023-05-14T01:54:32;15.37;;;12.77;;
2998;SDS011;1509;51.964;7.628;2023-05-14T01:56:58;14.10;;;12.60;;
2998;SDS011;1509;51.964;7.628;2023-05-14T01:59:23;14.77;;;12.60;;
2998;SDS011;1509;51.964;7.628;2023-05-14T02:01:49;14.57;;;12.53;;
2998;SDS011;1509;51.964;7.628;2023-05-14T02:04:15;15.50;;;13.70;;
2998;SDS011;1509;51.964;7.628;2023-05-14T02:06:40;19.33;;;15.30;;
2998;SDS011;1509;51.964;7.628;2023-05-14T02:09:06;15.80;;;12.63;;
2998;SDS011;1509;51.964;7.628;2023-05-14T02:11:32;15.57;;;11.80;;
2998;SDS011;1509;51.964;7.628;2023-05-14T02:13:57;13.00;;;10.80;;
2998;SDS011;1509;51.964;7.628;2023-05-14T02:16:23;13.07;;;10.30;;
2998;SDS011;1509;51.964;7.628;2023-05-14T02:18:48;14.30;;;11.43;;
2998;SDS011;1509;51.964;7.628;2023-05-14T02:21:14;13.60;;;11.03;;
2998;SDS011;1509;51.964;7.628;2023-05-14T02:23:40;16.30;;;11.57;;
2998;SDS011;1509;51.964;7.628;2023-05-14T02:26:07;16.57;;;10.43;;
2998;SDS011;1509;51.964;7.628;2023-05-14T02:28:33;13.77;;;11.07;;
2998;SDS011;1509;51.964;7.628;2023-05-14T02:30:59;14.07;;;10.57;;
2998;SDS011;1509;51.964;7.628;2023-05-14T02:33:25;16.27;;;12.63;;
2998;SDS011;1509;51.964;7.628;2023-05-14T02:35:51;13.40;;;11.27;;
2998;SDS011;1509;51.964;7.628;2023-05-14T02:38:17;17.93;;;11.80;;
2998;SDS011;1509;51.964;7.628;2023-05-14T02:40:43;11.90;;;10.70;;
2998;SDS011;1509;51.964;7.628;2023-05-14T02:43:09;14.20;;;12.20;;
2998;SDS011;1509;51.964;7.628;2023-05-14T02:45:34;13.50;;;11.23;;
2998;SDS011;1509;51.964;7.628;2023-05-14T02:48:00;12.33;;;10.90;;
2998;SDS011;1509;51.964;7.628;2023-05-14T02:50:28;14.70;;;11.93;;
2998;SDS011;1509;51.964;7.628;2023-05-14T02:52:54;14.27;;;11.73;;
2998;SDS011;1509;51.964;7.628;2023-05-14T02:55:20;13.57;;;11.20;;
2998;SDS011;1509;51.964;7.628;2023-05-14T02:57:45;14.50;;;10.90;;
2998;SDS011;1509;51.964;7.628;2023-05-14T03:00:11;12.20;;;10.30;;
2998;SDS011;1509;51.964;7.628;2023-05-14T03:02:37;14.23;;;11.03;;
2998;SDS011;1509;51.964;7.628;2023-05-14T03:05:03;13.17;;;11.60;;
2998;SDS011;1509;51.964;7.628;2023-05-14T03:07:29;15.10;;;11.90;;
2998;SDS011;1509;51.964;7.628;2023-05-14T03:09:54;14.83;;;12.20;;
2998;SDS011;1509;51.964;7.628;2023-05-14T03:12:20;13.47;;;11.90;;
2998;SDS011;1509;51.964;7.628;2023-05-14T03:14:46;12.47;;;11.00;;
2998;SDS011;1509;51.964;7.628;2023-05-14T03:17:11;15.43;;;12.37;;
2998;SDS011;1509;51.964;7.628;2023-05-14T03:19:37;15.70;;;12.60;;
2998;SDS011;1509;51.964;7.628;2023-05-14T03:22:03;13.00;;;11.60;;
2998;SDS011;1509;51.964;7.628;2023-05-14T03:24:28;14.67;;;11.70;;
2998;SDS011;1509;51.964;7.628;2023-05-14T03:26:55;17.60;;;11.10;;
2998;SDS011;1509;51.964;7.628;2023-05-14T03:29:21;13.27;;;11.40;;
2998;SDS011;1509;51.964;7.628;2023-05-14T03:31:46;15.83;;;12.03;;
2998;SDS011;1509;51.964;7.628;2023-05-14T03:34:12;15.80;;;11.87;;
2998;SDS011;1509;51.964;7.628;2023-05-14T03:36:37;13.83;;;11.60;;
2998;SDS011;1509;51.964;7.628;2023-05-14T03:39:03;14.23;;;11.13;;
2998;SDS011;1509;51.964;7.628;2023-05-14T03:41:33;13.33;;;11.03;;
2998;SDS011;1509;51.964;7.628;2023-05-14T03:43:59;15.80;;;12.30;;
2998;SDS011;1509;51.964;7.628;2023-05-14T03:46:24;15.07;;;13.10;;
2998;SDS011;1509;51.964;7.628;2023-05-14T03:48:50;16.20;;;12.73;;
2998;SDS011;1509;51.964;7.628;2023-05-14T03:51:15;14.80;;;12.90;;
2998;SDS011;1509;51.964;7.628;2023-05-14T03:53:41;15.63;;;12.53;;
2998;SDS011;1509;51.964;7.628;2023-05-14T03:56:07;15.80;;;13.47;;
2998;SDS011;1509;51.964;7.628;2023-05-14T03:58:32;14.17;;;12.67;;
2998;SDS011;1509;51.964;7.628;2023-05-14T04:00:58;13.13;;;11.73;;
2998;SDS011;1509;51.964;7.628;2023-05-14T04:03:24;18.00;;;14.33;;
2998;SDS011;1509;51.964;7.628;2023-05-14T04:05:50;16.80;;;13.27;;
2998;SDS011;1509;51.964;7.628;2023-05-14T04:08:15;17.60;;;12.90;;
2998;SDS011;1509;51.964;7.628;2023-05-14T04:10:41;20.77;;;11.50;;
2998;SDS011;1509;51.964;7.628;2023-05-14T04:13:07;21.07;;;13.67;;
2998;SDS011;1509;51.964;7.628;2023-05-14T04:15:32;15.57;;;13.97;;
2998;SDS011;1509;51.964;7.628;2023-05-14T04:17:59;20.38;;;17.15;;
2998;SDS011;1509;51.964;7.628;2023-05-14T04:20:28;15.43;;;13.43;;
2998;SDS011;1509;51.964;7.628;2023-05-14T04:22:55;19.80;;;14.07;;
2998;SDS011;1509;51.964;7.628;2023-05-14T04:25:20;19.23;;;13.93;;
2998;SDS011;1509;51.964;7.628;2023-05-14T04:27:46;15.17;;;12.97;;
2998;SDS011;1509;51.964;7.628;2023-05-14T04:30:12;16.40;;;13.20;;
2998;SDS011;1509;51.964;7.628;2023-05-14T04:32:37;15.47;;;13.70;;
2998;SDS011;1509;51.964;7.628;2023-05-14T04:35:03;14.63;;;12.23;;
2998;SDS011;1509;51.964;7.628;2023-05-14T04:37:29;15.43;;;13.57;;
2998;SDS011;1509;51.964;7.628;2023-05-14T04:39:55;15.20;;;12.57;;
2998;SDS011;1509;51.964;7.628;2023-05-14T04:42:21;18.70;;;14.10;;
2998;SDS011;1509;51.964;7.628;2023-05-14T04:44:46;15.77;;;14.13;;
2998;SDS011;1509;51.964;7.628;2023-05-14T04:47:12;14.87;;;13.30;;
2998;SDS011;1509;51.964;7.628;2023-05-14T04:49:38;15.50;;;13.67;;
2998;SDS011;1509;51.964;7.628;2023-05-14T04:52:04;16.37;;;13.20;;
2998;SDS011;1509;51.964;7.628;2023-05-14T04:54:30;18.07;;;13.67;;
2998;SDS011;1509;51.964;7.628;2023-05-14T04:56:56;14.93;;;13.30;;
2998;SDS011;1509;51.964;7.628;2023-05-14T04:59:26;15.83;;;12.57;;
2998;SDS011;1509;51.964;7.628;2023-05-14T05:01:53;17.97;;;13.70;;
2998;SDS011;1509;51.964;7.628;2023-05-14T05:04:18;13.77;;;12.40;;
2998;SDS011;1509;51.964;7.628;2023-05-14T05:06:44;16.47;;;12.90;;
2998;SDS011;1509;51.964;7.628;2023-05-14T05:09:09;15.40;;;12.87;;
2998;SDS011;1509;51.964;7.628;2023-05-14T05:11:35;14.93;;;12.53;;
2998;SDS011;1509;51.964;7.628;2023-05-14T05:14:01;14.73;;;12.33;;
2998;SDS011;1509;51.964;7.628;2023-05-14T05:16:27;12.87;;;11.57;;
2998;SDS011;1509;51.964;7.628;2023-05-14T05:18:53;13.83;;;11.80;;
2998;SDS011;1509;51.964;7.628;2023-05-14T05:21:18;13.80;;;12.23;;
2998;SDS011;1509;51.964;7.628;2023-05-14T05:23:44;16.07;;;11.80;;
2998;SDS011;1509;51.964;7.628;2023-05-14T05:26:09;13.10;;;11.70;;
2998;SDS011;1509;51.964;7.628;2023-05-14T05:28:35;12.17;;;10.87;;
2998;SDS011;1509;51.964;7.628;2023-05-14T05:31:00;12.43;;;11.13;;
2998;SDS011;1509;51.964;7.628;2023-05-14T05:33:26;14.53;;;11.53;;
2998;SDS011;1509;51.964;7.628;2023-05-14T05:35:52;16.90;;;12.20;;
2998;SDS011;1509;51.964;7.628;2023-05-14T05:38:17;12.23;;;11.00;;
2998;SDS011;1509;51.964;7.628;2023-05-14T05:40:43;10.50;;;9.30;;
2998;SDS011;1509;51.964;7.628;2023-05-14T05:43:09;11.50;;;10.27;;
2998;SDS011;1509;51.964;7.628;2023-05-14T05:45:34;12.67;;;10.97;;
2998;SDS011;1509;51.964;7.628;2023-05-14T05:48:00;12.43;;;10.60;;
2998;SDS011;1509;51.964;7.628;2023-05-14T05:50:26;12.60;;;11.40;;
2998;SDS011;1509;51.964;7.628;2023-05-14T05:52:51;12.43;;;10.63;;
2998;SDS011;1509;51.964;7.628;2023-05-14T05:55:17;12.23;;;9.63;;
2998;SDS011;1509;51.964;7.628;2023-05-14T05:57:43;12.33;;;10.30;;
2998;SDS011;1509;51.964;7.628;2023-05-14T06:00:08;12.83;;;10.37;;
2998;SDS011;1509;51.964;7.628;2023-05-14T06:02:37;12.17;;;10.87;;
2998;SDS011;1509;51.964;7.628;2023-05-14T06:05:04;12.17;;;8.90;;
2998;SDS011;1509;51.964;7.628;2023-05-14T06:07:34;10.50;;;9.30;;
2998;SDS011;1509;51.964;7.628;2023-05-14T06:09:59;12.40;;;9.10;;
2998;SDS011;1509;51.964;7.628;2023-05-14T06:12:25;9.83;;;8.27;;
2998;SDS011;1509;51.964;7.628;2023-05-14T06:14:53;11.00;;;8.63;;
2998;SDS011;1509;51.964;7.628;2023-05-14T06:17:19;11.00;;;8.90;;
2998;SDS011;1509;51.964;7.628;2023-05-14T06:19:45;11.70;;;9.57;;
2998;SDS011;1509;51.964;7.628;2023-05-14T06:22:11;10.80;;;9.00;;
2998;SDS011;1509;51.964;7.628;2023-05-14T06:24:37;10.83;;;8.43;;
2998;SDS011;1509;51.964;7.628;2023-05-14T06:27:05;10.33;;;8.33;;
2998;SDS011;1509;51.964;7.628;2023-05-14T06:29:30;9.67;;;8.60;;
2998;SDS011;1509;51.964;7.628;2023-05-14T06:32:00;9.97;;;8.00;;
2998;SDS011;1509;51.964;7.628;2023-05-14T06:34:26;10.67;;;9.00;;
2998;SDS011;1509;51.964;7.628;2023-05-14T06:36:52;9.40;;;8.40;;
2998;SDS011;1509;51.964;7.628;2023-05-14T06:39:18;10.03;;;8.07;;
2998;SDS011;1509;51.964;7.628;2023-05-14T06:41:43;11.90;;;9.27;;
2998;SDS011;1509;51.964;7.628;2023-05-14T06:44:09;9.23;;;8.23;;
2998;SDS011;1509;51.964;7.628;2023-05-14T06:46:35;10.93;;;8.63;;
2998;SDS011;1509;51.964;7.628;2023-05-14T06:49:01;9.67;;;8.10;;
2998;SDS011;1509;51.964;7.628;2023-05-14T06:51:26;9.43;;;8.40;;
2998;SDS011;1509;51.964;7.628;2023-05-14T06:53:53;11.60;;;7.20;;
2998;SDS011;1509;51.964;7.628;2023-05-14T06:56:20;11.30;;;7.50;;
2998;SDS011;1509;51.964;7.628;2023-05-14T06:58:46;8.47;;;7.57;;
2998;SDS011;1509;51.964;7.628;2023-05-14T07:01:12;9.63;;;7.70;;
2998;SDS011;1509;51.964;7.628;2023-05-14T07:03:38;9.57;;;8.17;;
2998;SDS011;1509;51.964;7.628;2023-05-14T07:06:03;9.20;;;8.30;;
2998;SDS011;1509;51.964;7.628;2023-05-14T07:08:30;10.00;;;7.67;;
2998;SDS011;1509;51.964;7.628;2023-05-14T07:10:56;9.40;;;8.00;;
2998;SDS011;1509;51.964;7.628;2023-05-14T07:13:22;11.23;;;7.20;;
2998;SDS011;1509;51.964;7.628;2023-05-14T07:15:48;8.07;;;7.20;;
2998;SDS011;1509;51.964;7.628;2023-05-14T07:18:13;10.50;;;8.37;;
2998;SDS011;1509;51.964;7.628;2023-05-14T07:20:39;9.70;;;7.80;;
2998;SDS011;1509;51.964;7.628;2023-05-14T07:23:05;8.10;;;7.20;;
2998;SDS011;1509;51.964;7.628;2023-05-14T07:25:31;11.20;;;7.80;;
2998;SDS011;1509;51.964;7.628;2023-05-14T07:27:56;8.43;;;7.00;;
2998;SDS011;1509;51.964;7.628;2023-05-14T07:30:22;7.80;;;6.70;;
2998;SDS011;1509;51.964;7.628;2023-05-14T07:32:48;8.90;;;7.30;;
2998;SDS011;1509;51.964;7.628;2023-05-14T07:35:16;8.70;;;7.80;;
2998;SDS011;1509;51.964;7.628;2023-05-14T07:37:42;10.97;;;7.70;;
2998;SDS011;1509;51.964;7.628;2023-05-14T07:40:10;10.07;;;7.37;;
2998;SDS011;1509;51.964;7.628;2023-05-14T07:42:36;7.93;;;6.97;;
2998;SDS011;1509;51.964;7.628;2023-05-14T07:45:01;7.70;;;6.90;;
2998;SDS011;1509;51.964;7.628;2023-05-14T07:47:28;7.40;;;5.90;;
2998;SDS011;1509;51.964;7.628;2023-05-14T07:49:54;9.17;;;6.57;;
2998;SDS011;1509;51.964;7.628;2023-05-14T07:52:21;8.97;;;7.23;;
2998;SDS011;1509;51.964;7.628;2023-05-14T07:54:47;7.33;;;6.53;;
2998;SDS011;1509;51.964;7.628;2023-05-14T07:57:12;7.17;;;6.47;;
2998;SDS011;1509;51.964;7.628;2023-05-14T07:59:38;7.03;;;6.33;;
2998;SDS011;1509;51.964;7.628;2023-05-14T08:02:03;8.90;;;6.87;;
2998;SDS011;1509;51.964;7.628;2023-05-14T08:04:29;9.50;;;6.67;;
2998;SDS011;1509;51.964;7.628;2023-05-14T08:06:55;9.40;;;6.73;;
2998;SDS011;1509;51.964;7.628;2023-05-14T08:09:22;7.97;;;6.57;;
2998;SDS011;1509;51.964;7.628;2023-05-14T08:11:47;6.50;;;5.90;;
2998;SDS011;1509;51.964;7.628;2023-05-14T08:14:13;6.63;;;5.00;;
2998;SDS011;1509;51.964;7.628;2023-05-14T08:16:39;7.77;;;6.20;;
2998;SDS011;1509;51.964;7.628;2023-05-14T08:19:04;7.13;;;6.00;;
2998;SDS011;1509;51.964;7.628;2023-05-14T08:21:30;5.50;;;4.90;;
2998;SDS011;1509;51.964;7.628;2023-05-14T08:23:56;6.00;;;5.33;;
2998;SDS011;1509;51.964;7.628;2023-05-14T08:26:22;5.87;;;5.27;;
2998;SDS011;1509;51.964;7.628;2023-05-14T08:28:47;6.10;;;5.50;;
2998;SDS011;1509;51.964;7.628;2023-05-14T08:31:13;6.50;;;5.80;;
2998;SDS011;1509;51.964;7.628;2023-05-14T08:33:39;6.17;;;5.50;;
2998;SDS011;1509;51.964;7.628;2023-05-14T08:36:05;6.73;;;5.93;;
2998;SDS011;1509;51.964;7.628;2023-05-14T08:38:31;6.47;;;5.77;;
2998;SDS011;1509;51.964;7.628;2023-05-14T08:40:57;5.80;;;4.70;;
2998;SDS011;1509;51.964;7.628;2023-05-14T08:46:15;6.83;;;5.07;;
2998;SDS011;1509;51.964;7.628;2023-05-14T08:48:42;5.10;;;4.27;;
2998;SDS011;1509;51.964;7.628;2023-05-14T08:51:17;4.67;;;4.20;;
2998;SDS011;1509;51.964;7.628;2023-05-14T08:53:46;4.63;;;4.23;;
2998;SDS011;1509;51.964;7.628;2023-05-14T08:56:11;6.43;;;4.27;;
2998;SDS011;1509;51.964;7.628;2023-05-14T08:58:40;6.30;;;4.53;;
2998;SDS011;1509;51.964;7.628;2023-05-14T09:01:05;8.97;;;4.20;;
2998;SDS011;1509;51.964;7.628;2023-05-14T09:03:31;5.60;;;4.53;;
2998;SDS011;1509;51.964;7.628;2023-05-14T09:05:58;4.13;;;3.30;;
2998;SDS011;1509;51.964;7.628;2023-05-14T09:08:24;3.80;;;3.23;;
2998;SDS011;1509;51.964;7.628;2023-05-14T09:10:50;5.07;;;3.80;;
2998;SDS011;1509;51.964;7.628;2023-05-14T09:13:16;3.80;;;2.80;;
2998;SDS011;1509;51.964;7.628;2023-05-14T09:15:41;3.30;;;2.97;;
2998;SDS011;1509;51.964;7.628;2023-05-14T09:18:10;3.57;;;3.27;;
2998;SDS011;1509;51.964;7.628;2023-05-14T09:20:36;6.43;;;3.67;;
2998;SDS011;1509;51.964;7.628;2023-05-14T09:23:03;4.23;;;3.80;;
2998;SDS011;1509;51.964;7.628;2023-05-14T09:25:31;4.80;;;3.40;;
2998;SDS011;1509;51.964;7.628;2023-05-14T09:28:04;3.83;;;3.40;;
2998;SDS011;1509;51.964;7.628;2023-05-14T09:30:31;4.50;;;2.77;;
2998;SDS011;1509;51.964;7.628;2023-05-14T09:32:58;3.60;;;3.30;;
2998;SDS011;1509;51.964;7.628;2023-05-14T09:35:24;4.40;;;3.57;;
2998;SDS011;1509;51.964;7.628;2023-05-14T09:37:51;3.40;;;3.10;;
2998;SDS011;1509;51.964;7.628;2023-05-14T09:40:18;3.40;;;2.70;;
2998;SDS011;1509;51.964;7.628;2023-05-14T09:42:45;4.73;;;2.60;;
2998;SDS011;1509;51.964;7.628;2023-05-14T09:45:13;2.83;;;2.43;;
2998;SDS011;1509;51.964;7.628;2023-05-14T09:47:39;2.50;;;2.30;;
2998;SDS011;1509;51.964;7.628;2023-05-14T09:50:05;3.50;;;2.70;;
2998;SDS011;1509;51.964;7.628;2023-05-14T09:52:33;3.13;;;2.70;;
2998;SDS011;1509;51.964;7.628;2023-05-14T09:54:59;3.43;;;3.13;;
2998;SDS011;1509;51.964;7.628;2023-05-14T09:57:25;4.00;;;2.77;;
2998;SDS011;1509;51.964;7.628;2023-05-14T09:59:51;4.00;;;2.30;;
2998;SDS011;1509;51.964;7.628;2023-05-14T10:02:20;3.10;;;2.43;;
2998;SDS011;1509;51.964;7.628;2023-05-14T10:04:48;3.77;;;2.87;;
2998;SDS011;1509;51.964;7.628;2023-05-14T10:07:16;2.93;;;2.63;;
2998;SDS011;1509;51.964;7.628;2023-05-14T10:09:47;2.57;;;2.33;;
2998;SDS011;1509;51.964;7.628;2023-05-14T10:12:13;3.63;;;3.30;;
2998;SDS011;1509;51.964;7.628;2023-05-14T10:14:46;5.80;;;3.37;;
2998;SDS011;1509;51.964;7.628;2023-05-14T10:17:13;3.13;;;2.83;;
2998;SDS011;1509;51.964;7.628;2023-05-14T10:19:46;3.17;;;2.87;;
2998;SDS011;1509;51.964;7.628;2023-05-14T10:22:16;2.87;;;2.60;;
2998;SDS011;1509;51.964;7.628;2023-05-14T10:24:46;3.20;;;2.90;;
2998;SDS011;1509;51.964;7.628;2023-05-14T10:27:16;2.80;;;2.50;;
2998;SDS011;1509;51.964;7.628;2023-05-14T10:29:47;2.57;;;2.30;;
2998;SDS011;1509;51.964;7.628;2023-05-14T10:32:18;2.97;;;2.67;;
2998;SDS011;1509;51.964;7.628;2023-05-14T10:34:49;3.40;;;3.10;;
2998;SDS011;1509;51.964;7.628;2023-05-14T10:37:20;3.43;;;2.70;;
2998;SDS011;1509;51.964;7.628;2023-05-14T10:39:50;3.67;;;3.00;;
2998;SDS011;1509;51.964;7.628;2023-05-14T10:44:47;3.67;;;2.60;;
2998;SDS011;1509;51.964;7.628;2023-05-14T10:47:22;2.50;;;2.30;;
2998;SDS011;1509;51.964;7.628;2023-05-14T10:49:53;2.90;;;2.60;;
2998;SDS011;1509;51.964;7.628;2023-05-14T10:52:20;2.77;;;2.20;;
2998;SDS011;1509;51.964;7.628;2023-05-14T10:54:50;3.23;;;2.83;;
2998;SDS011;1509;51.964;7.628;2023-05-14T10:57:19;3.33;;;2.63;;
2998;SDS011;1509;51.964;7.628;2023-05-14T10:59:49;3.17;;;2.70;;
2998;SDS011;1509;51.964;7.628;2023-05-14T11:02:27;3.60;;;3.27;;
2998;SDS011;1509;51.964;7.628;2023-05-14T11:07:31;3.17;;;2.80;;
2998;SDS011;1509;51.964;7.628;2023-05-14T11:10:02;3.27;;;2.93;;
2998;SDS011;1509;51.964;7.628;2023-05-14T11:12:39;2.70;;;2.50;;
2998;SDS011;1509;51.964;7.628;2023-05-14T11:15:27;3.20;;;2.90;;
2998;SDS011;1509;51.964;7.628;2023-05-14T11:17:53;3.40;;;3.10;;
2998;SDS011;1509;51.964;7.628;2023-05-14T11:20:19;5.03;;;3.20;;
2998;SDS011;1509;51.964;7.628;2023-05-14T11:22:45;3.43;;;3.13;;
2998;SDS011;1509;51.964;7.628;2023-05-14T11:25:13;3.40;;;3.10;;
2998;SDS011;1509;51.964;7.628;2023-05-14T11:27:39;3.30;;;3.00;;
2998;SDS011;1509;51.964;7.628;2023-05-14T11:30:17;3.47;;;3.03;;
2998;SDS011;1509;51.964;7.628;2023-05-14T11:32:44;3.43;;;2.90;;
2998;SDS011;1509;51.964;7.628;2023-05-14T11:35:10;3.40;;;3.10;;
2998;SDS011;1509;51.964;7.628;2023-05-14T11:37:36;3.73;;;3.30;;
2998;SDS011;1509;51.964;7.628;2023-05-14T11:40:05;3.57;;;3.20;;
2998;SDS011;1509;51.964;7.628;2023-05-14T11:42:33;3.50;;;3.20;;
2998;SDS011;1509;51.964;7.628;2023-05-14T11:45:01;3.77;;;3.37;;
2998;SDS011;1509;51.964;7.628;2023-05-14T11:47:28;4.93;;;3.50;;
2998;SDS011;1509;51.964;7.628;2023-05-14T11:49:54;4.00;;;2.97;;
2998;SDS011;1509;51.964;7.628;2023-05-14T11:52:20;3.40;;;3.10;;
2998;SDS011;1509;51.964;7.628;2023-05-14T11:54:46;3.80;;;3.10;;
2998;SDS011;1509;51.964;7.628;2023-05-14T11:57:17;4.03;;;3.70;;
2998;SDS011;1509;51.964;7.628;2023-05-14T11:59:47;3.90;;;3.50;;
2998;SDS011;1509;51.964;7.628;2023-05-14T12:02:14;4.57;;;4.07;;
2998;SDS011;1509;51.964;7.628;2023-05-14T12:04:41;3.90;;;3.50;;
2998;SDS011;1509;51.964;7.628;2023-05-14T12:07:08;4.23;;;3.27;;
2998;SDS011;1509;51.964;7.628;2023-05-14T12:09:36;3.40;;;3.10;;
2998;SDS011;1509;51.964;7.628;2023-05-14T12:12:11;3.77;;;3.23;;
2998;SDS011;1509;51.964;7.628;2023-05-14T12:14:38;3.77;;;3.37;;
2998;SDS011;1509;51.964;7.628;2023-05-14T12:17:12;6.00;;;3.90;;
2998;SDS011;1509;51.964;7.628;2023-05-14T12:19:44;4.17;;;3.30;;
2998;SDS011;1509;51.964;7.628;2023-05-14T12:22:13;4.07;;;2.90;;
2998;SDS011;1509;51.964;7.628;2023-05-14T12:24:40;3.50;;;3.20;;
2998;SDS011;1509;51.964;7.628;2023-05-14T12:27:07;4.80;;;3.60;;
2998;SDS011;1509;51.964;7.628;2023-05-14T12:29:34;3.70;;;3.40;;
2998;SDS011;1509;51.964;7.628;2023-05-14T12:32:08;4.40;;;3.87;;
2998;SDS011;1509;51.964;7.628;2023-05-14T12:34:34;3.80;;;3.37;;
2998;SDS011;1509;51.964;7.628;2023-05-14T12:37:00;4.63;;;3.20;;
2998;SDS011;1509;51.964;7.628;2023-05-14T12:39:26;3.83;;;3.33;;
2998;SDS011;1509;51.964;7.628;2023-05-14T12:41:52;4.57;;;3.50;;
2998;SDS011;1509;51.964;7.628;2023-05-14T12:44:17;4.03;;;3.73;;
2998;SDS011;1509;51.964;7.628;2023-05-14T12:46:43;5.30;;;3.23;;
2998;SDS011;1509;51.964;7.628;2023-05-14T12:49:09;3.70;;;3.30;;
2998;SDS011;1509;51.964;7.628;2023-05-14T12:51:35;4.00;;;3.23;;
2998;SDS011;1509;51.964;7.628;2023-05-14T12:54:03;4.07;;;3.13;;
2998;SDS011;1509;51.964;7.628;2023-05-14T12:56:29;3.10;;;2.80;;
2998;SDS011;1509;51.964;7.628;2023-05-14T12:58:56;3.47;;;3.17;;
2998;SDS011;1509;51.964;7.628;2023-05-14T13:01:22;3.93;;;3.33;;
2998;SDS011;1509;51.964;7.628;2023-05-14T13:03:48;3.73;;;3.43;;
2998;SDS011;1509;51.964;7.628;2023-05-14T13:06:13;3.33;;;3.03;;
2998;SDS011;1509;51.964;7.628;2023-05-14T13:08:42;4.43;;;4.03;;
2998;SDS011;1509;51.964;7.628;2023-05-14T13:11:07;3.87;;;3.47;;
2998;SDS011;1509;51.964;7.628;2023-05-14T13:13:33;4.80;;;3.10;;
2998;SDS011;1509;51.964;7.628;2023-05-14T13:16:01;3.30;;;3.00;;
2998;SDS011;1509;51.964;7.628;2023-05-14T13:18:28;3.57;;;3.17;;
2998;SDS011;1509;51.964;7.628;2023-05-14T13:20:53;4.47;;;3.20;;
2998;SDS011;1509;51.964;7.628;2023-05-14T13:23:19;3.20;;;2.90;;
2998;SDS011;1509;51.964;7.628;2023-05-14T13:25:44;4.73;;;3.60;;
2998;SDS011;1509;51.964;7.628;2023-05-14T13:28:10;3.60;;;3.30;;
2998;SDS011;1509;51.964;7.628;2023-05-14T13:30:36;4.10;;;3.53;;
2998;SDS011;1509;51.964;7.628;2023-05-14T13:33:01;4.33;;;3.20;;
2998;SDS011;1509;51.964;7.628;2023-05-14T13:35:27;3.83;;;3.37;;
2998;SDS011;1509;51.964;7.628;2023-05-14T13:37:53;3.77;;;3.10;;
2998;SDS011;1509;51.964;7.628;2023-05-14T13:40:18;5.33;;;3.53;;
2998;SDS011;1509;51.964;7.628;2023-05-14T13:42:44;4.77;;;3.97;;
2998;SDS011;1509;51.964;7.628;2023-05-14T13:45:11;4.73;;;4.33;;
2998;SDS011;1509;51.964;7.628;2023-05-14T13:47:37;4.13;;;3.73;;
2998;SDS011;1509;51.964;7.628;2023-05-14T13:50:02;3.90;;;3.30;;
2998;SDS011;1509;51.964;7.628;2023-05-14T13:52:28;4.13;;;3.33;;
2998;SDS011;1509;51.964;7.628;2023-05-14T13:54:54;4.10;;;3.20;;
2998;SDS011;1509;51.964;7.628;2023-05-14T13:57:20;3.63;;;3.33;;
2998;SDS011;1509;51.964;7.628;2023-05-14T13:59:46;4.23;;;3.83;;
2998;SDS011;1509;51.964;7.628;2023-05-14T14:02:13;3.83;;;3.43;;
2998;SDS011;1509;51.964;7.628;2023-05-14T14:04:39;3.80;;;3.20;;
2998;SDS011;1509;51.964;7.628;2023-05-14T14:07:04;4.30;;;3.37;;
2998;SDS011;1509;51.964;7.628;2023-05-14T14:09:30;3.93;;;3.53;;
2998;SDS011;1509;51.964;7.628;2023-05-14T14:11:59;4.17;;;3.10;;
2998;SDS011;1509;51.964;7.628;2023-05-14T14:14:26;4.90;;;3.40;;
2998;SDS011;1509;51.964;7.628;2023-05-14T14:16:51;6.07;;;3.20;;
2998;SDS011;1509;51.964;7.628;2023-05-14T14:19:17;3.93;;;3.00;;
2998;SDS011;1509;51.964;7.628;2023-05-14T14:21:43;4.80;;;3.00;;
2998;SDS011;1509;51.964;7.628;2023-05-14T14:24:08;3.70;;;3.13;;
2998;SDS011;1509;51.964;7.628;2023-05-14T14:26:34;5.60;;;3.30;;
2998;SDS011;1509;51.964;7.628;2023-05-14T14:29:00;4.00;;;3.20;;
2998;SDS011;1509;51.964;7.628;2023-05-14T14:31:25;5.10;;;3.43;;
2998;SDS011;1509;51.964;7.628;2023-05-14T14:33:51;3.30;;;2.77;;
2998;SDS011;1509;51.964;7.628;2023-05-14T14:36:19;4.00;;;3.60;;
2998;SDS011;1509;51.964;7.628;2023-05-14T14:38:45;3.80;;;3.03;;
2998;SDS011;1509;51.964;7.628;2023-05-14T14:41:10;4.40;;;2.70;;
2998;SDS011;1509;51.964;7.628;2023-05-14T14:43:36;5.80;;;3.20;;
2998;SDS011;1509;51.964;7.628;2023-05-14T14:46:04;5.73;;;3.47;;
2998;SDS011;1509;51.964;7.628;2023-05-14T14:48:31;3.87;;;3.13;;
2998;SDS011;1509;51.964;7.628;2023-05-14T14:51:01;3.67;;;3.27;;
2998;SDS011;1509;51.964;7.628;2023-05-14T14:53:27;5.23;;;3.10;;
2998;SDS011;1509;51.964;7.628;2023-05-14T14:55:52;3.73;;;2.60;;
2998;SDS011;1509;51.964;7.628;2023-05-14T14:58:19;3.63;;;3.17;;
2998;SDS011;1509;51.964;7.628;2023-05-14T15:00:45;4.57;;;3.30;;
2998;SDS011;1509;51.964;7.628;2023-05-14T15:03:11;4.07;;;3.20;;
2998;SDS011;1509;51.964;7.628;2023-05-14T15:05:38;3.60;;;2.63;;
2998;SDS011;1509;51.964;7.628;2023-05-14T15:08:04;8.90;;;2.90;;
2998;SDS011;1509;51.964;7.628;2023-05-14T15:10:30;3.20;;;2.90;;
2998;SDS011;1509;51.964;7.628;2023-05-14T15:12:56;4.70;;;3.17;;